Time;durP1;ratioP1;P1;durP2;ratioP2;P2;SDS_P1;SDS_P2;PMS_P1;PMS_P2;Temp;Humidity;BMP_temperature;BMP_pressure;BME280_temperature;BME280_humidity;BME280_pressure;Samples;Min_cycle;Max_cycle;Signal;HPM_P1;HPM_P2
2022/06/22 00:02:03;;;;;;;11.30;6.90;;;;;;;;;;5086822;28;20024;-66
2022/06/22 00:04:35;;;;;;;12.37;7.20;;;;;;;;;;5088393;28;20024;-66
2022/06/22 00:07:06;;;;;;;13.90;7.30;;;;;;;;;;5086236;28;20024;-66
2022/06/22 00:09:34;;;;;;;15.40;7.17;;;;;;;;;;5082427;28;20024;-66
2022/06/22 00:11:59;;;;;;;10.63;7.30;;;;;;;;;;5086643;28;20024;-66
2022/06/22 00:14:45;;;;;;;11.37;7.17;;;;;;;;;;5085885;28;20371;-66
2022/06/22 00:17:22;;;;;;;12.93;7.13;;;;;;;;;;5087099;28;20024;-66
2022/06/22 00:19:48;;;;;;;14.13;7.53;;;;;;;;;;5084472;28;20020;-66
2022/06/22 00:22:21;;;;;;;13.63;7.93;;;;;;;;;;5089476;28;20049;-66
2022/06/22 00:24:53;;;;;;;12.33;7.50;;;;;;;;;;5080183;28;20149;-66
2022/06/22 00:27:20;;;;;;;14.63;7.90;;;;;;;;;;5086144;28;20544;-66
2022/06/22 00:29:46;;;;;;;17.07;8.40;;;;;;;;;;5087802;28;20104;-66
2022/06/22 00:32:25;;;;;;;14.37;8.10;;;;;;;;;;5082878;28;20051;-66
2022/06/22 00:34:50;;;;;;;14.13;7.87;;;;;;;;;;5090042;28;20024;-66
2022/06/22 00:37:17;;;;;;;11.77;7.97;;;;;;;;;;5086080;28;20077;-66
2022/06/22 00:39:47;;;;;;;15.70;8.43;;;;;;;;;;5091023;28;20019;-66
2022/06/22 00:42:21;;;;;;;13.60;8.27;;;;;;;;;;5090685;28;20038;-65
2022/06/22 00:44:46;;;;;;;15.10;9.00;;;;;;;;;;5089960;28;20020;-66
2022/06/22 00:47:29;;;;;;;14.73;9.33;;;;;;;;;;5077802;28;20059;-66
2022/06/22 00:49:56;;;;;;;15.20;9.90;;;;;;;;;;5084898;28;20392;-66
2022/06/22 00:52:33;;;;;;;16.53;10.03;;;;;;;;;;5083407;28;20055;-66
2022/06/22 00:54:58;;;;;;;14.50;10.03;;;;;;;;;;5087946;28;20020;-66
2022/06/22 00:57:31;;;;;;;15.27;10.40;;;;;;;;;;5088212;28;20031;-66
2022/06/22 01:00:16;;;;;;;17.47;10.60;;;;;;;;;;5086135;28;20465;-66
2022/06/22 01:03:00;;;;;;;20.00;10.57;;;;;;;;;;5085650;28;20200;-66
2022/06/22 01:05:34;;;;;;;17.87;10.10;;;;;;;;;;5079849;28;20039;-66
2022/06/22 01:08:09;;;;;;;24.47;11.57;;;;;;;;;;5083750;28;20063;-66
2022/06/22 01:10:39;;;;;;;19.30;11.33;;;;;;;;;;5084768;28;20030;-66
2022/06/22 01:13:08;;;;;;;19.50;12.30;;;;;;;;;;5081395;28;20081;-66
2022/06/22 01:15:51;;;;;;;21.70;11.97;;;;;;;;;;5077748;28;20028;-66
2022/06/22 01:18:23;;;;;;;22.13;12.00;;;;;;;;;;5082106;28;20028;-66
2022/06/22 01:20:56;;;;;;;22.90;12.02;;;;;;;;;;5087285;28;20456;-66
2022/06/22 01:23:32;;;;;;;22.07;12.53;;;;;;;;;;5077228;28;20027;-66
2022/06/22 01:26:16;;;;;;;22.90;12.10;;;;;;;;;;5080052;28;20020;-66
2022/06/22 01:28:50;;;;;;;17.30;11.30;;;;;;;;;;5080838;28;20107;-66
2022/06/22 01:31:15;;;;;;;22.13;12.07;;;;;;;;;;5078515;28;20020;-66
2022/06/22 01:33:46;;;;;;;21.60;11.80;;;;;;;;;;5081985;28;20027;-66
2022/06/22 01:36:15;;;;;;;17.58;11.18;;;;;;;;;;5086451;28;20024;-66
2022/06/22 01:38:40;;;;;;;24.13;12.77;;;;;;;;;;5079836;28;20086;-66
2022/06/22 01:41:22;;;;;;;20.20;11.97;;;;;;;;;;5081266;28;20020;-66
2022/06/22 01:43:58;;;;;;;16.83;11.27;;;;;;;;;;5080074;28;20495;-66
2022/06/22 01:46:46;;;;;;;20.20;11.87;;;;;;;;;;5087157;28;20032;-66
2022/06/22 01:49:18;;;;;;;18.33;11.07;;;;;;;;;;5075812;28;20036;-66
2022/06/22 01:51:48;;;;;;;21.70;11.33;;;;;;;;;;5074236;28;20016;-66
2022/06/22 01:54:16;;;;;;;19.47;11.27;;;;;;;;;;5074892;28;20051;-66
2022/06/22 01:56:48;;;;;;;21.37;12.33;;;;;;;;;;5075473;28;20468;-66
2022/06/22 01:59:23;;;;;;;22.20;13.17;;;;;;;;;;5075488;28;20117;-66
2022/06/22 02:01:57;;;;;;;23.93;13.60;;;;;;;;;;5081390;28;20499;-66
2022/06/22 02:04:33;;;;;;;23.60;13.53;;;;;;;;;;5081104;28;20020;-66
2022/06/22 02:10:11;;;;;;;30.90;15.87;;;;;;;;;;5074169;28;20538;-66
2022/06/22 02:12:40;;;;;;;27.87;15.60;;;;;;;;;;5079693;28;20032;-66
2022/06/22 02:15:27;;;;;;;29.40;16.50;;;;;;;;;;5075789;28;20127;-66
2022/06/22 02:17:53;;;;;;;30.37;17.30;;;;;;;;;;5086531;28;20114;-66
2022/06/22 02:20:19;;;;;;;27.77;16.77;;;;;;;;;;5075018;28;20020;-66
2022/06/22 02:22:47;;;;;;;34.53;17.63;;;;;;;;;;5085344;28;20358;-66
2022/06/22 02:25:14;;;;;;;29.77;15.50;;;;;;;;;;5090534;28;20035;-66
2022/06/22 02:27:39;;;;;;;28.53;14.83;;;;;;;;;;5077998;28;20028;-66
2022/06/22 02:30:05;;;;;;;23.83;14.50;;;;;;;;;;5077233;28;20035;-66
2022/06/22 02:32:33;;;;;;;23.10;15.07;;;;;;;;;;5085485;28;20024;-66
2022/06/22 02:34:58;;;;;;;27.37;15.00;;;;;;;;;;5072690;28;20063;-66
2022/06/22 02:37:28;;;;;;;30.40;16.40;;;;;;;;;;5076836;28;20436;-65
2022/06/22 02:39:56;;;;;;;27.97;16.50;;;;;;;;;;5082850;28;20034;-65
2022/06/22 02:45:10;;;;;;;27.80;16.70;;;;;;;;;;5078671;28;20055;-66
2022/06/22 02:47:46;;;;;;;27.03;16.73;;;;;;;;;;5083132;28;20029;-65
2022/06/22 02:50:17;;;;;;;29.00;15.73;;;;;;;;;;5071121;28;20028;-65
2022/06/22 02:52:46;;;;;;;29.42;16.98;;;;;;;;;;5073522;28;20059;-66
2022/06/22 02:55:16;;;;;;;29.97;16.87;;;;;;;;;;5079463;28;20028;-66
2022/06/22 02:57:50;;;;;;;28.97;17.13;;;;;;;;;;5077445;28;20016;-66
2022/06/22 03:00:17;;;;;;;33.60;17.90;;;;;;;;;;5073411;28;20111;-66
2022/06/22 03:02:43;;;;;;;32.23;17.53;;;;;;;;;;5085960;28;20162;-66
2022/06/22 03:05:09;;;;;;;32.40;17.17;;;;;;;;;;5068593;28;20119;-66
2022/06/22 03:07:36;;;;;;;33.43;17.37;;;;;;;;;;5078976;28;20380;-66
2022/06/22 03:10:02;;;;;;;34.97;16.30;;;;;;;;;;5070599;28;20023;-66
2022/06/22 03:12:28;;;;;;;38.77;14.87;;;;;;;;;;5082580;28;20312;-66
2022/06/22 03:15:03;;;;;;;23.43;12.40;;;;;;;;;;5083735;28;20111;-66
2022/06/22 03:17:31;;;;;;;19.67;12.37;;;;;;;;;;5084061;28;20021;-66
2022/06/22 03:20:03;;;;;;;26.50;12.83;;;;;;;;;;5078004;28;20047;-66
2022/06/22 03:22:32;;;;;;;26.77;14.50;;;;;;;;;;5078120;28;20016;-66
2022/06/22 03:25:03;;;;;;;25.90;14.80;;;;;;;;;;5071212;28;20024;-66
2022/06/22 03:27:30;;;;;;;29.13;14.40;;;;;;;;;;5080127;28;20434;-66
2022/06/22 03:29:57;;;;;;;28.80;13.93;;;;;;;;;;5075197;28;20036;-66
2022/06/22 03:32:25;;;;;;;22.27;14.37;;;;;;;;;;5073834;28;20024;-66
2022/06/22 03:34:55;;;;;;;26.10;14.77;;;;;;;;;;5079159;28;20021;-66
2022/06/22 03:37:25;;;;;;;23.83;15.33;;;;;;;;;;5080502;28;20023;-66
2022/06/22 03:39:52;;;;;;;24.77;15.27;;;;;;;;;;5079488;28;20112;-66
2022/06/22 03:42:22;;;;;;;29.13;17.10;;;;;;;;;;5080133;28;20032;-66
2022/06/22 03:45:02;;;;;;;27.23;15.27;;;;;;;;;;5086481;28;20012;-67
2022/06/22 03:47:34;;;;;;;27.47;15.83;;;;;;;;;;5079563;28;20518;-66
2022/06/22 03:49:59;;;;;;;;;;;;;;;;;;5092329;28;20024;-66
2022/06/22 03:52:36;;;;;;;23.17;13.35;;;;;;;;;;5078425;28;19974;-66
2022/06/22 03:55:04;;;;;;;20.83;11.40;;;;;;;;;;5080839;28;20506;-66
2022/06/22 03:57:32;;;;;;;18.80;11.33;;;;;;;;;;5083049;28;20024;-67
2022/06/22 03:59:57;;;;;;;19.47;11.10;;;;;;;;;;5077832;28;20081;-66
2022/06/22 04:02:24;;;;;;;18.23;11.70;;;;;;;;;;5081946;28;20414;-66
2022/06/22 04:04:54;;;;;;;22.77;11.80;;;;;;;;;;5079184;28;20473;-66
2022/06/22 04:07:19;;;;;;;19.47;11.37;;;;;;;;;;5082498;28;20035;-66
2022/06/22 04:09:49;;;;;;;19.90;9.50;;;;;;;;;;5080845;28;20017;-66
2022/06/22 04:12:38;;;;;;;12.90;8.23;;;;;;;;;;5081577;28;20529;-66
2022/06/22 04:15:22;;;;;;;14.20;8.57;;;;;;;;;;5070524;28;20090;-67
2022/06/22 04:17:50;;;;;;;14.03;9.03;;;;;;;;;;5078432;28;20518;-67
2022/06/22 04:20:18;;;;;;;13.13;8.30;;;;;;;;;;5077241;28;20031;-67
2022/06/22 04:22:45;;;;;;;15.10;8.77;;;;;;;;;;5085879;28;20078;-67
2022/06/22 04:25:11;;;;;;;13.53;8.07;;;;;;;;;;5080712;28;20022;-67
2022/06/22 04:27:39;;;;;;;14.87;8.07;;;;;;;;;;5088468;28;20024;-67
2022/06/22 04:30:04;;;;;;;12.23;7.77;;;;;;;;;;5075946;28;20036;-67
2022/06/22 04:32:35;;;;;;;11.03;7.00;;;;;;;;;;5077047;28;20035;-67
2022/06/22 04:35:03;;;;;;;10.82;7.45;;;;;;;;;;5076374;28;20525;-67
2022/06/22 04:37:49;;;;;;;12.75;7.40;;;;;;;;;;5087800;28;20028;-67
2022/06/22 04:40:18;;;;;;;14.68;7.15;;;;;;;;;;5076682;28;20376;-67
2022/06/22 04:42:43;;;;;;;10.70;7.28;;;;;;;;;;5080733;28;20024;-67
2022/06/22 04:45:21;;;;;;;11.15;7.18;;;;;;;;;;5073131;28;20016;-67
2022/06/22 04:47:46;;;;;;;12.27;6.97;;;;;;;;;;5083543;28;20078;-67
2022/06/22 04:50:13;;;;;;;13.30;7.25;;;;;;;;;;5076813;28;20024;-67
2022/06/22 04:52:43;;;;;;;9.95;5.53;;;;;;;;;;5084915;28;20040;-67
2022/06/22 04:55:19;;;;;;;11.15;6.60;;;;;;;;;;5093098;28;20077;-68
2022/06/22 04:57:49;;;;;;;9.95;4.85;;;;;;;;;;5080385;28;20031;-67
2022/06/22 05:00:17;;;;;;;10.35;4.85;;;;;;;;;;5088444;28;20368;-67
2022/06/22 05:02:44;;;;;;;12.32;4.70;;;;;;;;;;5074255;28;20362;-67
2022/06/22 05:05:18;;;;;;;8.27;4.90;;;;;;;;;;5074408;28;20021;-67
2022/06/22 05:08:16;;;;;;;12.77;5.00;;;;;;;;;;5073779;28;20492;-67
2022/06/22 05:10:49;;;;;;;10.00;5.25;;;;;;;;;;5067812;28;20039;-67
2022/06/22 05:13:23;;;;;;;14.45;5.30;;;;;;;;;;5084060;28;20022;-67
2022/06/22 05:15:49;;;;;;;9.70;5.15;;;;;;;;;;5073017;28;20103;-67
2022/06/22 05:18:18;;;;;;;9.32;5.60;;;;;;;;;;5085539;28;20024;-67
2022/06/22 05:21:02;;;;;;;11.20;5.65;;;;;;;;;;5077982;28;20085;-67
2022/06/22 05:23:29;;;;;;;8.52;5.57;;;;;;;;;;5081180;28;20032;-67
2022/06/22 05:25:55;;;;;;;10.52;5.10;;;;;;;;;;5074761;28;20040;-67
2022/06/22 05:28:41;;;;;;;11.02;5.38;;;;;;;;;;5088963;28;20031;-67
2022/06/22 05:31:16;;;;;;;11.90;5.47;;;;;;;;;;5072462;28;20111;-67
2022/06/22 05:33:43;;;;;;;9.50;5.90;;;;;;;;;;5081997;28;20097;-67
2022/06/22 05:36:10;;;;;;;10.35;5.90;;;;;;;;;;5075514;28;20031;-67
2022/06/22 05:38:37;;;;;;;9.95;5.53;;;;;;;;;;5071366;28;20020;-67
2022/06/22 05:41:04;;;;;;;15.13;6.63;;;;;;;;;;5081866;28;20024;-68
2022/06/22 05:43:31;;;;;;;8.45;5.50;;;;;;;;;;5082974;28;20495;-68
2022/06/22 05:45:57;;;;;;;11.40;5.82;;;;;;;;;;5080266;28;20028;-68
2022/06/22 05:48:24;;;;;;;10.20;5.55;;;;;;;;;;5087285;28;20024;-67
2022/06/22 05:50:58;;;;;;;12.07;5.82;;;;;;;;;;5088391;28;20036;-67
2022/06/22 05:53:27;;;;;;;10.63;5.47;;;;;;;;;;5079574;28;20042;-67
2022/06/22 05:56:02;;;;;;;12.05;5.43;;;;;;;;;;5080250;28;20016;-67
2022/06/22 05:58:33;;;;;;;13.25;6.07;;;;;;;;;;5084915;28;20317;-67
2022/06/22 06:01:00;;;;;;;11.52;5.80;;;;;;;;;;5076110;28;20115;-67
2022/06/22 06:03:29;;;;;;;10.95;5.60;;;;;;;;;;5072849;28;20025;-68
2022/06/22 06:05:57;;;;;;;10.13;5.35;;;;;;;;;;5081749;28;20050;-68
2022/06/22 06:08:24;;;;;;;9.57;5.47;;;;;;;;;;5071112;28;20031;-67
2022/06/22 06:10:50;;;;;;;8.25;5.25;;;;;;;;;;5075165;28;20378;-67
2022/06/22 06:13:23;;;;;;;7.80;5.10;;;;;;;;;;5077707;28;20020;-67
2022/06/22 06:15:50;;;;;;;10.75;4.80;;;;;;;;;;5077222;28;20022;-67
2022/06/22 06:18:23;;;;;;;12.98;4.65;;;;;;;;;;5075320;28;20047;-68
2022/06/22 06:20:56;;;;;;;11.15;4.70;;;;;;;;;;5077172;28;20017;-67
2022/06/22 06:23:24;;;;;;;12.48;5.13;;;;;;;;;;5085121;28;20055;-67
2022/06/22 06:28:43;;;;;;;11.20;5.20;;;;;;;;;;5081650;28;20431;-67
2022/06/22 06:31:14;;;;;;;9.90;5.03;;;;;;;;;;5076070;28;20034;-68
2022/06/22 06:33:39;;;;;;;8.13;5.07;;;;;;;;;;5072710;28;20064;-67
2022/06/22 06:36:08;;;;;;;9.05;5.30;;;;;;;;;;5074013;28;20054;-68
2022/06/22 06:38:47;;;;;;;9.77;5.25;;;;;;;;;;5073481;28;20484;-68
2022/06/22 06:41:13;;;;;;;11.45;5.55;;;;;;;;;;5074913;28;20483;-67
2022/06/22 06:43:41;;;;;;;8.38;4.70;;;;;;;;;;5076508;28;20024;-68
2022/06/22 06:46:15;;;;;;;10.45;4.88;;;;;;;;;;5073383;28;20107;-67
2022/06/22 06:48:41;;;;;;;10.13;4.50;;;;;;;;;;5072675;28;20034;-67
2022/06/22 06:51:08;;;;;;;11.93;5.40;;;;;;;;;;5077235;28;20497;-67
2022/06/22 06:53:41;;;;;;;10.68;5.03;;;;;;;;;;5073247;28;20128;-67
2022/06/22 06:56:09;;;;;;;8.65;5.00;;;;;;;;;;5080353;28;20078;-67
2022/06/22 06:58:50;;;;;;;9.20;4.25;;;;;;;;;;5087656;28;20026;-67
2022/06/22 07:01:27;;;;;;;9.20;4.50;;;;;;;;;;5088313;28;20012;-68
2022/06/22 07:03:58;;;;;;;8.88;4.60;;;;;;;;;;5073198;28;20085;-68
2022/06/22 07:06:24;;;;;;;8.43;4.53;;;;;;;;;;5081864;28;20032;-68
2022/06/22 07:08:57;;;;;;;9.13;5.05;;;;;;;;;;5086994;28;20170;-68
2022/06/22 07:11:31;;;;;;;7.55;4.00;;;;;;;;;;5087640;28;20491;-68
2022/06/22 07:13:59;;;;;;;6.15;3.40;;;;;;;;;;5090975;28;20030;-68
2022/06/22 07:16:26;;;;;;;8.23;3.75;;;;;;;;;;5085917;28;20024;-67
2022/06/22 07:18:58;;;;;;;7.43;3.90;;;;;;;;;;5075531;28;20019;-68
2022/06/22 07:21:29;;;;;;;8.48;3.95;;;;;;;;;;5071702;28;20020;-67
2022/06/22 07:23:54;;;;;;;;;;;;;;;;;;5076546;28;20020;-67
2022/06/22 07:26:26;;;;;;;7.45;4.07;;;;;;;;;;5075634;28;19955;-67
2022/06/22 07:29:01;;;;;;;7.80;3.78;;;;;;;;;;5068480;28;20472;-67
2022/06/22 07:31:29;;;;;;;5.70;2.80;;;;;;;;;;5075838;28;20097;-68
2022/06/22 07:33:58;;;;;;;5.78;2.65;;;;;;;;;;5074426;28;20028;-68
2022/06/22 07:36:27;;;;;;;5.25;2.00;;;;;;;;;;5082649;28;20631;-68
2022/06/22 07:39:13;;;;;;;4.95;1.92;;;;;;;;;;5089108;28;20074;-68
2022/06/22 07:41:38;;;;;;;5.88;2.20;;;;;;;;;;5083433;28;20017;-68
2022/06/22 07:44:06;;;;;;;16.30;2.10;;;;;;;;;;5075618;28;20027;-67
2022/06/22 07:46:37;;;;;;;6.93;2.00;;;;;;;;;;5085372;28;20479;-68
2022/06/22 07:49:10;;;;;;;6.20;2.13;;;;;;;;;;5089998;28;20675;-68
2022/06/22 07:51:37;;;;;;;8.70;2.30;;;;;;;;;;5085761;28;20507;-68
2022/06/22 07:54:10;;;;;;;8.90;2.10;;;;;;;;;;5083709;28;20384;-67
2022/06/22 07:56:38;;;;;;;7.53;2.10;;;;;;;;;;5084111;28;20440;-67
2022/06/22 07:59:09;;;;;;;6.93;1.80;;;;;;;;;;5082604;28;20013;-67
2022/06/22 08:01:37;;;;;;;4.28;1.60;;;;;;;;;;5075524;28;20021;-68
2022/06/22 08:04:09;;;;;;;4.28;1.58;;;;;;;;;;5071335;28;20038;-68
2022/06/22 08:06:41;;;;;;;4.53;1.38;;;;;;;;;;5079046;28;20035;-68
2022/06/22 08:09:18;;;;;;;5.95;1.38;;;;;;;;;;5086238;28;20028;-68
2022/06/22 08:11:49;;;;;;;5.22;1.63;;;;;;;;;;5079880;28;20047;-67
2022/06/22 08:14:34;;;;;;;5.47;1.85;;;;;;;;;;5076679;28;20063;-68
2022/06/22 08:17:01;;;;;;;7.22;1.80;;;;;;;;;;5077699;28;20023;-68
2022/06/22 08:19:28;;;;;;;6.28;1.85;;;;;;;;;;5074196;28;20040;-68
2022/06/22 08:21:58;;;;;;;6.38;2.20;;;;;;;;;;5081646;28;20107;-68
2022/06/22 08:24:26;;;;;;;5.87;2.10;;;;;;;;;;5091124;28;20035;-68
2022/06/22 08:26:54;;;;;;;5.35;1.90;;;;;;;;;;5084592;28;20383;-68
2022/06/22 08:29:20;;;;;;;6.43;1.98;;;;;;;;;;5087474;28;20031;-67
2022/06/22 08:32:08;;;;;;;5.45;1.63;;;;;;;;;;5079815;28;20025;-68
2022/06/22 08:34:36;;;;;;;5.85;1.67;;;;;;;;;;5065420;28;20193;-68
2022/06/22 08:37:06;;;;;;;4.53;1.70;;;;;;;;;;5093086;28;20024;-67
2022/06/22 08:39:42;;;;;;;6.07;1.90;;;;;;;;;;5077826;28;20090;-67
2022/06/22 08:42:23;;;;;;;6.97;1.77;;;;;;;;;;5086608;28;20028;-68
2022/06/22 08:44:49;;;;;;;4.15;1.45;;;;;;;;;;5077656;28;20052;-67
2022/06/22 08:47:33;;;;;;;7.05;1.75;;;;;;;;;;5079197;28;20062;-67
2022/06/22 08:50:24;;;;;;;4.20;1.50;;;;;;;;;;5077923;28;20020;-68
2022/06/22 08:52:57;;;;;;;5.80;1.60;;;;;;;;;;5082103;28;20043;-67
2022/06/22 08:55:23;;;;;;;4.60;1.40;;;;;;;;;;5072950;28;20028;-67
2022/06/22 08:57:48;;;;;;;3.78;1.40;;;;;;;;;;5079985;28;20051;-67
2022/06/22 09:00:20;;;;;;;4.15;1.52;;;;;;;;;;5086236;28;20027;-67
2022/06/22 09:02:48;;;;;;;11.18;1.50;;;;;;;;;;5086424;28;20020;-67
2022/06/22 09:05:25;;;;;;;4.93;1.38;;;;;;;;;;5081285;28;20029;-67
2022/06/22 09:08:03;;;;;;;5.30;1.55;;;;;;;;;;5082337;28;20032;-67
2022/06/22 09:10:34;;;;;;;4.90;1.55;;;;;;;;;;5073472;28;20480;-67
2022/06/22 09:13:02;;;;;;;5.07;1.65;;;;;;;;;;5078249;28;20021;-68
2022/06/22 09:15:35;;;;;;;9.60;1.70;;;;;;;;;;5081762;28;20138;-68
2022/06/22 09:18:13;;;;;;;5.40;1.45;;;;;;;;;;5084776;28;20024;-67
2022/06/22 09:20:53;;;;;;;4.47;1.50;;;;;;;;;;5081416;28;20036;-68
2022/06/22 09:23:18;;;;;;;4.53;1.60;;;;;;;;;;5089153;28;20012;-68
2022/06/22 09:25:50;;;;;;;3.30;1.10;;;;;;;;;;5093178;28;20016;-68
2022/06/22 09:28:25;;;;;;;5.85;1.40;;;;;;;;;;5084670;28;20281;-68
2022/06/22 09:31:03;;;;;;;4.78;1.42;;;;;;;;;;5079091;28;20024;-68
2022/06/22 09:33:34;;;;;;;5.72;1.70;;;;;;;;;;5083288;28;20035;-68
2022/06/22 09:36:06;;;;;;;4.38;1.65;;;;;;;;;;5091126;28;20388;-67
2022/06/22 09:38:51;;;;;;;5.32;1.42;;;;;;;;;;5090970;28;20072;-68
2022/06/22 09:41:19;;;;;;;5.32;1.42;;;;;;;;;;5092083;28;20035;-68
2022/06/22 09:43:57;;;;;;;3.70;1.40;;;;;;;;;;5077403;28;20027;-67
2022/06/22 09:46:22;;;;;;;4.38;1.50;;;;;;;;;;5075015;28;20016;-67
2022/06/22 09:48:56;;;;;;;5.82;1.65;;;;;;;;;;5075442;28;20035;-67
2022/06/22 09:52:00;;;;;;;5.90;1.60;;;;;;;;;;5078882;28;20036;-68
2022/06/22 09:57:23;;;;;;;4.13;1.60;;;;;;;;;;5047473;28;20040;-67
2022/06/22 09:59:48;;;;;;;5.00;1.27;;;;;;;;;;5064385;28;20032;-67
2022/06/22 10:02:26;;;;;;;5.75;1.60;;;;;;;;;;5085417;28;20362;-67
2022/06/22 10:05:18;;;;;;;6.20;1.45;;;;;;;;;;5078244;28;20024;-67
2022/06/22 10:07:43;;;;;;;6.35;1.30;;;;;;;;;;5088845;28;20042;-67
2022/06/22 10:10:14;;;;;;;4.17;1.40;;;;;;;;;;5092916;28;20099;-68
2022/06/22 10:12:58;;;;;;;6.57;1.40;;;;;;;;;;5092328;28;20422;-67
2022/06/22 10:15:42;;;;;;;3.88;1.50;;;;;;;;;;5086202;28;20020;-67
2022/06/22 10:18:14;;;;;;;4.50;1.40;;;;;;;;;;5083048;28;20027;-67
2022/06/22 10:20:39;;;;;;;3.63;1.27;;;;;;;;;;5074957;28;20026;-67
2022/06/22 10:23:11;;;;;;;3.58;1.30;;;;;;;;;;5076957;28;20478;-67
2022/06/22 10:25:42;;;;;;;4.45;1.70;;;;;;;;;;5072355;28;20023;-67
2022/06/22 10:28:22;;;;;;;8.27;1.67;;;;;;;;;;5084687;28;20025;-67
2022/06/22 10:31:06;;;;;;;4.65;1.30;;;;;;;;;;5077991;28;20071;-68
2022/06/22 10:33:37;;;;;;;5.10;1.55;;;;;;;;;;5075640;28;20040;-68
2022/06/22 10:36:15;;;;;;;3.63;1.48;;;;;;;;;;5077660;28;20795;-68
2022/06/22 10:38:59;;;;;;;4.78;1.55;;;;;;;;;;5072156;28;20046;-68
2022/06/22 10:47:19;;;;;;;3.60;1.27;;;;;;;;;;5083674;28;20038;-68
2022/06/22 10:49:53;;;;;;;4.00;1.30;;;;;;;;;;5074272;28;20020;-68
2022/06/22 10:52:33;;;;;;;3.83;1.10;;;;;;;;;;5075637;28;20353;-68
2022/06/22 10:54:59;;;;;;;4.75;1.10;;;;;;;;;;5074788;28;20085;-67
2022/06/22 10:57:33;;;;;;;4.63;1.45;;;;;;;;;;5075020;28;20745;-67
2022/06/22 11:00:20;;;;;;;4.85;1.13;;;;;;;;;;5067106;28;20349;-67
2022/06/22 11:02:48;;;;;;;3.03;1.15;;;;;;;;;;5069490;28;20024;-67
2022/06/22 11:05:32;;;;;;;4.80;1.10;;;;;;;;;;5072709;28;20114;-67
2022/06/22 11:08:15;;;;;;;4.07;1.17;;;;;;;;;;5070850;28;20459;-67
2022/06/22 11:10:59;;;;;;;3.53;1.13;;;;;;;;;;5076615;28;20519;-67
2022/06/22 11:13:25;;;;;;;6.05;1.10;;;;;;;;;;5072281;28;20017;-68
2022/06/22 11:15:53;;;;;;;3.27;1.10;;;;;;;;;;5079287;28;20099;-67
2022/06/22 11:18:24;;;;;;;5.22;1.10;;;;;;;;;;5086828;28;20665;-67
2022/06/22 11:21:05;;;;;;;3.70;1.17;;;;;;;;;;5083851;28;20024;-67
2022/06/22 11:23:39;;;;;;;8.98;1.30;;;;;;;;;;5079281;28;20402;-69
2022/06/22 11:32:12;;;;;;;4.18;1.15;;;;;;;;;;5079639;28;20062;-67
2022/06/22 11:34:40;;;;;;;5.18;1.00;;;;;;;;;;5070318;28;20055;-67
2022/06/22 11:37:26;;;;;;;2.22;0.80;;;;;;;;;;5080088;28;20024;-66
2022/06/22 11:39:52;;;;;;;4.05;1.20;;;;;;;;;;5074797;28;20016;-66
2022/06/22 11:42:32;;;;;;;5.50;1.10;;;;;;;;;;5086452;28;20128;-67
2022/06/22 11:47:49;;;;;;;3.40;1.10;;;;;;;;;;5079298;28;20031;-66
2022/06/22 11:50:19;;;;;;;6.30;1.35;;;;;;;;;;5079140;28;20035;-66
2022/06/22 11:52:58;;;;;;;3.13;0.98;;;;;;;;;;5090856;28;20028;-66
2022/06/22 11:55:26;;;;;;;2.65;0.73;;;;;;;;;;5086376;28;20063;-66
2022/06/22 11:57:51;;;;;;;3.33;0.90;;;;;;;;;;5082165;28;20074;-66
2022/06/22 12:00:19;;;;;;;3.43;1.00;;;;;;;;;;5093086;28;20016;-66
2022/06/22 12:02:57;;;;;;;2.97;0.80;;;;;;;;;;5089991;28;20281;-66
2022/06/22 12:05:22;;;;;;;4.18;0.90;;;;;;;;;;5075477;28;20043;-66
2022/06/22 12:08:03;;;;;;;1.90;0.70;;;;;;;;;;5090437;28;20032;-66
2022/06/22 12:10:31;;;;;;;3.20;1.00;;;;;;;;;;5091590;28;20278;-66
2022/06/22 12:13:04;;;;;;;3.10;0.98;;;;;;;;;;5083660;28;20455;-66
2022/06/22 12:15:33;;;;;;;3.58;1.00;;;;;;;;;;5082661;28;20473;-66
2022/06/22 12:17:58;;;;;;;5.60;0.98;;;;;;;;;;5078431;28;20108;-67
2022/06/22 12:20:29;;;;;;;3.45;0.80;;;;;;;;;;5074367;28;20524;-66
2022/06/22 12:23:13;;;;;;;3.00;0.80;;;;;;;;;;5080542;28;20028;-66
2022/06/22 12:25:59;;;;;;;4.53;0.90;;;;;;;;;;5074983;28;20054;-66
2022/06/22 12:28:30;;;;;;;1.85;0.80;;;;;;;;;;5074491;28;20017;-66
2022/06/22 12:30:56;;;;;;;2.20;0.80;;;;;;;;;;5077100;28;20036;-67
2022/06/22 12:33:31;;;;;;;3.60;0.80;;;;;;;;;;5086732;28;20384;-67
2022/06/22 12:35:59;;;;;;;4.00;0.90;;;;;;;;;;5088902;28;20262;-67
2022/06/22 12:38:26;;;;;;;4.75;0.85;;;;;;;;;;5090212;28;20020;-66
2022/06/22 12:40:52;;;;;;;2.85;0.70;;;;;;;;;;5084748;28;20020;-67
2022/06/22 12:43:17;;;;;;;4.07;1.00;;;;;;;;;;5080363;28;20029;-66
2022/06/22 12:45:42;;;;;;;3.50;1.00;;;;;;;;;;5075989;28;20043;-66
2022/06/22 12:48:20;;;;;;;2.17;0.82;;;;;;;;;;5079052;28;20028;-67
2022/06/22 12:51:04;;;;;;;1.60;0.73;;;;;;;;;;5075909;28;20396;-66
2022/06/22 12:53:41;;;;;;;1.75;0.60;;;;;;;;;;5086056;28;20043;-65
2022/06/22 12:56:09;;;;;;;2.78;1.00;;;;;;;;;;5087674;28;20039;-66
2022/06/22 12:58:46;;;;;;;2.40;0.80;;;;;;;;;;5085772;28;20020;-66
2022/06/22 13:01:11;;;;;;;3.50;0.75;;;;;;;;;;5075532;28;20540;-67
2022/06/22 13:03:39;;;;;;;3.15;0.80;;;;;;;;;;5074228;28;20094;-66
2022/06/22 13:06:04;;;;;;;2.33;0.68;;;;;;;;;;5084128;28;20383;-66
2022/06/22 13:08:29;;;;;;;2.83;0.90;;;;;;;;;;5073639;28;20024;-67
2022/06/22 13:10:59;;;;;;;1.85;0.75;;;;;;;;;;5073173;28;20087;-68
2022/06/22 13:13:27;;;;;;;3.70;1.08;;;;;;;;;;5067372;28;20062;-67
2022/06/22 13:16:13;;;;;;;2.25;0.90;;;;;;;;;;5081556;28;20520;-66
2022/06/22 13:18:57;;;;;;;3.83;0.93;;;;;;;;;;5079490;28;20058;-67
2022/06/22 13:21:37;;;;;;;2.65;0.80;;;;;;;;;;5072613;28;20447;-67
2022/06/22 13:24:08;;;;;;;2.50;0.80;;;;;;;;;;5083439;28;20032;-67
2022/06/22 13:26:51;;;;;;;2.65;0.80;;;;;;;;;;5077493;28;20137;-66
2022/06/22 13:29:16;;;;;;;3.38;1.00;;;;;;;;;;5070558;28;20120;-66
2022/06/22 13:31:43;;;;;;;3.23;1.03;;;;;;;;;;5080080;28;20492;-66
2022/06/22 13:34:14;;;;;;;4.63;0.98;;;;;;;;;;5069618;28;20282;-66
2022/06/22 13:36:46;;;;;;;6.22;1.00;;;;;;;;;;5083424;28;20127;-67
2022/06/22 13:39:33;;;;;;;4.47;1.17;;;;;;;;;;5072226;28;20032;-66
2022/06/22 13:42:03;;;;;;;4.07;0.93;;;;;;;;;;5076817;28;20036;-67
2022/06/22 13:44:31;;;;;;;3.63;1.10;;;;;;;;;;5075304;28;20035;-67
2022/06/22 13:47:05;;;;;;;5.65;0.90;;;;;;;;;;5075225;28;20149;-67
2022/06/22 13:49:33;;;;;;;3.53;0.95;;;;;;;;;;5075589;28;20035;-67
2022/06/22 13:52:15;;;;;;;2.95;0.95;;;;;;;;;;5078640;28;20549;-66
2022/06/22 13:54:58;;;;;;;2.75;0.80;;;;;;;;;;5075406;28;20028;-67
2022/06/22 13:57:41;;;;;;;5.13;0.85;;;;;;;;;;5083621;28;20420;-66
2022/06/22 14:00:07;;;;;;;2.58;0.90;;;;;;;;;;5068590;28;20035;-67
2022/06/22 14:02:51;;;;;;;3.70;0.90;;;;;;;;;;5076521;28;20021;-67
2022/06/22 14:05:25;;;;;;;3.55;0.88;;;;;;;;;;5082416;28;20048;-67
2022/06/22 14:08:13;;;;;;;3.58;0.80;;;;;;;;;;5077327;28;20397;-67
2022/06/22 14:10:46;;;;;;;5.68;1.05;;;;;;;;;;5050605;28;20037;-67
2022/06/22 14:13:25;;;;;;;3.25;0.95;;;;;;;;;;5070501;28;20024;-67
2022/06/22 14:15:54;;;;;;;3.13;1.00;;;;;;;;;;5074659;28;20032;-67
2022/06/22 14:18:22;;;;;;;3.45;1.10;;;;;;;;;;5081244;28;20028;-66
2022/06/22 14:21:07;;;;;;;3.97;1.00;;;;;;;;;;5077954;28;20025;-66
2022/06/22 14:23:34;;;;;;;3.38;1.10;;;;;;;;;;5069273;28;20036;-66
2022/06/22 14:26:23;;;;;;;3.47;1.17;;;;;;;;;;5080341;28;20479;-67
2022/06/22 14:29:06;;;;;;;5.32;1.10;;;;;;;;;;5081642;28;20471;-67
2022/06/22 14:31:58;;;;;;;4.88;1.40;;;;;;;;;;5071264;28;20020;-67
2022/06/22 14:34:38;;;;;;;4.82;1.17;;;;;;;;;;5068844;28;20037;-67
2022/06/22 14:37:11;;;;;;;3.78;1.30;;;;;;;;;;5074259;28;20029;-67
2022/06/22 14:39:45;;;;;;;3.85;1.40;;;;;;;;;;5088643;28;20024;-67
2022/06/22 14:42:22;;;;;;;6.50;1.60;;;;;;;;;;5075039;28;20124;-67
2022/06/22 14:44:53;;;;;;;4.60;1.25;;;;;;;;;;5072208;28;20021;-67
2022/06/22 14:47:18;;;;;;;4.47;1.27;;;;;;;;;;5071801;28;20061;-67
2022/06/22 14:49:49;;;;;;;4.35;1.50;;;;;;;;;;5083151;28;20517;-67
2022/06/22 14:52:21;;;;;;;6.78;1.50;;;;;;;;;;5076979;28;20074;-67
2022/06/22 14:54:57;;;;;;;4.10;1.25;;;;;;;;;;5072229;28;20476;-66
2022/06/22 14:57:28;;;;;;;6.32;1.33;;;;;;;;;;5080104;28;20105;-67
2022/06/22 15:00:06;;;;;;;5.13;1.30;;;;;;;;;;5082117;28;20032;-67
2022/06/22 15:02:50;;;;;;;4.38;1.30;;;;;;;;;;5071145;28;20070;-67
2022/06/22 15:05:32;;;;;;;3.47;1.17;;;;;;;;;;5085539;28;20027;-66
2022/06/22 15:08:00;;;;;;;6.47;1.63;;;;;;;;;;5079224;28;20067;-66
2022/06/22 15:10:38;;;;;;;5.55;1.38;;;;;;;;;;5072590;28;20514;-67
2022/06/22 15:13:03;;;;;;;4.43;1.30;;;;;;;;;;5078959;28;20071;-67
2022/06/22 15:15:28;;;;;;;3.65;1.15;;;;;;;;;;5087720;28;20059;-67
2022/06/22 15:18:00;;;;;;;5.32;1.40;;;;;;;;;;5079179;28;20031;-67
2022/06/22 15:20:25;;;;;;;3.13;1.00;;;;;;;;;;5090490;28;20569;-67
2022/06/22 15:22:51;;;;;;;5.90;1.30;;;;;;;;;;5086487;28;20015;-67
2022/06/22 15:25:36;;;;;;;6.90;1.40;;;;;;;;;;5085821;28;20251;-67
2022/06/22 15:28:24;;;;;;;4.07;1.20;;;;;;;;;;5073183;28;20357;-67
2022/06/22 15:30:51;;;;;;;4.28;1.23;;;;;;;;;;5072165;28;20036;-67
2022/06/22 15:33:19;;;;;;;5.22;1.20;;;;;;;;;;5072146;28;20077;-67